< < Back
Terminal Aerodrome Forecast


Current Version              Previous Versions:   1  2  3  4  5  6  7  8  9  

Terminal Aerodrome Forecast

555
FTUS44 KMRX 221120
TAFCHA
TAF
KCHA 221120Z 2212/2312 VRB03KT P6SM OVC020
     FM221700 15008KT P6SM VCSH OVC025
     FM230100 16008KT 4SM -SHRA BR OVC015=

Latest METAR

566
SAUS80 KWBC 221200 RRC
MTRCHA
METAR KCHA 221153Z 00000KT 10SM OVC023 08/04 A3002 RMK AO2 SLP167
T00830044 10083 20078 55005 $


USA.gov is the U.S. government's official web portal to all federal, state and local government web resources and services.